Time;durP1;ratioP1;P1;durP2;ratioP2;P2;SDS_P1;SDS_P2;PMS_P1;PMS_P2;Temp;Humidity;BMP_temperature;BMP_pressure;BME280_temperature;BME280_humidity;BME280_pressure;Samples;Min_cycle;Max_cycle;Signal;HPM_P1;HPM_P2
2022/10/02 00:02:20;;;;;;;10.52;4.60;;;11.20;99.90;;;;;;5073788;28;20119;-27
2022/10/02 00:05:10;;;;;;;17.45;5.68;;;11.20;99.90;;;;;;5074154;28;20093;-27
2022/10/02 00:07:48;;;;;;;10.27;5.03;;;11.20;99.90;;;;;;5074306;28;20075;-27
2022/10/02 00:10:29;;;;;;;14.90;4.78;;;11.20;99.90;;;;;;5092208;28;20374;-27
2022/10/02 00:13:00;;;;;;;13.02;4.80;;;11.20;99.90;;;;;;5073916;28;20485;-27
2022/10/02 00:15:30;;;;;;;12.30;4.55;;;11.20;99.90;;;;;;5057048;28;20123;-27
2022/10/02 00:18:01;;;;;;;12.98;5.60;;;11.20;99.90;;;;;;5074035;28;20127;-27
2022/10/02 00:20:41;;;;;;;12.48;4.85;;;11.20;99.90;;;;;;5073767;28;20040;-27
2022/10/02 00:23:26;;;;;;;11.82;5.10;;;11.30;99.90;;;;;;5092115;28;20036;-27
2022/10/02 00:26:11;;;;;;;16.80;4.80;;;11.30;99.90;;;;;;5074040;28;20371;-27
2022/10/02 00:29:23;;;;;;;11.88;4.63;;;11.30;99.90;;;;;;5073925;28;20439;-27
2022/10/02 00:31:55;;;;;;;12.90;4.53;;;11.20;99.90;;;;;;5028702;28;20509;-27
2022/10/02 00:34:39;;;;;;;13.65;4.72;;;11.20;99.90;;;;;;5073950;28;20068;-27
2022/10/02 00:38:03;;;;;;;12.75;5.05;;;11.20;99.90;;;;;;5073821;28;20486;-27
2022/10/02 00:40:41;;;;;;;11.40;4.15;;;11.20;99.90;;;;;;4969826;28;20049;-27
2022/10/02 00:43:09;;;;;;;14.10;4.43;;;11.10;99.90;;;;;;5077381;28;20455;-27
2022/10/02 00:45:52;;;;;;;16.20;4.82;;;11.10;99.90;;;;;;5077274;28;20040;-27
2022/10/02 00:48:27;;;;;;;9.68;4.25;;;11.10;99.90;;;;;;5077225;28;20036;-27
2022/10/02 00:51:02;;;;;;;12.90;4.25;;;11.10;99.90;;;;;;5077273;28;20119;-27
2022/10/02 00:53:35;;;;;;;9.68;4.53;;;11.10;99.90;;;;;;5077328;28;20062;-28
2022/10/02 00:56:20;;;;;;;;;;;11.10;99.90;;;;;;5077932;28;20109;-27
2022/10/02 00:59:06;;;;;;;8.88;4.63;;;11.10;99.90;;;;;;5077399;28;19939;-27
2022/10/02 01:01:41;;;;;;;11.65;4.57;;;11.00;99.90;;;;;;5076402;28;20044;-28
2022/10/02 01:04:14;;;;;;;12.07;4.55;;;11.10;99.90;;;;;;5077354;28;20036;-27
2022/10/02 01:06:40;;;;;;;12.93;4.40;;;11.10;99.90;;;;;;5077412;28;20036;-28
2022/10/02 01:09:06;;;;;;;9.30;4.35;;;11.10;99.90;;;;;;5077269;28;20385;-28
2022/10/02 01:11:32;;;;;;;13.10;5.03;;;11.10;99.90;;;;;;5060316;28;20051;-27
2022/10/02 01:13:58;;;;;;;12.75;4.90;;;11.10;99.90;;;;;;5076957;28;20040;-28
2022/10/02 01:16:24;;;;;;;17.45;4.88;;;11.10;99.90;;;;;;5076800;28;20047;-28
2022/10/02 01:18:50;;;;;;;10.40;4.22;;;11.10;99.90;;;;;;5076816;28;20097;-28
2022/10/02 01:21:25;;;;;;;13.40;5.07;;;11.10;99.90;;;;;;5076487;28;20036;-28
2022/10/02 01:24:12;;;;;;;11.50;4.22;;;11.10;99.90;;;;;;5076545;28;20168;-28
2022/10/02 01:26:38;;;;;;;11.88;4.35;;;11.20;99.90;;;;;;5076962;28;20123;-28
2022/10/02 01:29:04;;;;;;;14.38;4.57;;;11.10;99.90;;;;;;5059762;28;20143;-27
2022/10/02 01:31:31;;;;;;;15.70;5.18;;;11.20;99.90;;;;;;5076739;28;20047;-28
2022/10/02 01:33:57;;;;;;;10.40;4.35;;;11.20;99.90;;;;;;5076758;28;20047;-27
2022/10/02 01:36:24;;;;;;;13.52;4.20;;;11.20;99.90;;;;;;5076688;28;20036;-27
2022/10/02 01:38:51;;;;;;;12.30;4.65;;;11.20;99.90;;;;;;5076739;28;20389;-27
2022/10/02 01:41:17;;;;;;;13.15;4.40;;;11.20;99.90;;;;;;5076689;28;20508;-27
2022/10/02 01:43:54;;;;;;;13.13;4.13;;;11.20;99.90;;;;;;5076389;28;20051;-27
2022/10/02 01:46:57;;;;;;;14.18;4.57;;;11.20;99.90;;;;;;5076727;28;20039;-27
2022/10/02 01:49:34;;;;;;;12.00;4.57;;;11.20;99.90;;;;;;5076660;28;20394;-27
2022/10/02 01:52:19;;;;;;;15.50;4.15;;;11.20;99.90;;;;;;5075948;28;20063;-27
2022/10/02 01:55:00;;;;;;;10.80;4.72;;;11.20;99.90;;;;;;5076632;28;20050;-27
2022/10/02 01:58:01;;;;;;;16.15;4.25;;;11.30;99.90;;;;;;5059447;28;20123;-27
2022/10/02 02:00:37;;;;;;;11.63;4.10;;;11.40;99.90;;;;;;5042207;28;20056;-27
2022/10/02 02:03:25;;;;;;;9.30;3.35;;;11.40;99.90;;;;;;5059214;28;20043;-27
2022/10/02 02:06:10;;;;;;;11.95;3.88;;;11.30;99.90;;;;;;5076123;28;20119;-27
2022/10/02 02:08:57;;;;;;;12.00;3.90;;;11.40;99.90;;;;;;5076087;28;20429;-27
2022/10/02 02:11:22;;;;;;;13.43;4.05;;;11.40;99.90;;;;;;5076118;28;20075;-27
2022/10/02 02:14:01;;;;;;;13.90;4.78;;;11.50;99.90;;;;;;5075982;28;20505;-27
2022/10/02 02:16:38;;;;;;;15.60;4.80;;;11.50;99.90;;;;;;5075609;28;20047;-27
2022/10/02 02:19:23;;;;;;;10.45;4.40;;;11.40;99.90;;;;;;5075506;28;20051;-27
2022/10/02 02:22:16;;;;;;;10.48;3.63;;;11.40;99.90;;;;;;5075747;28;20078;-27
2022/10/02 02:24:47;;;;;;;16.30;4.50;;;11.40;99.90;;;;;;5075869;28;20338;-27
2022/10/02 02:27:20;;;;;;;14.40;4.47;;;11.40;99.90;;;;;;5075415;28;20059;-27
2022/10/02 02:29:49;;;;;;;13.03;4.17;;;11.40;99.90;;;;;;5058812;28;20051;-27
2022/10/02 02:32:21;;;;;;;12.90;4.32;;;11.30;99.90;;;;;;5093427;28;20040;-27
2022/10/02 02:35:00;;;;;;;10.93;4.53;;;11.40;99.90;;;;;;5075647;28;20469;-27
2022/10/02 02:37:30;;;;;;;15.52;4.57;;;11.30;99.90;;;;;;5075650;28;20529;-27
2022/10/02 02:40:02;;;;;;;14.65;4.53;;;11.30;99.90;;;;;;5075333;28;20036;-27
2022/10/02 02:42:31;;;;;;;14.20;4.45;;;11.30;99.90;;;;;;5093196;28;20067;-27
2022/10/02 02:44:59;;;;;;;11.27;3.92;;;11.20;99.90;;;;;;5075468;28;20036;-27
2022/10/02 02:48:02;;;;;;;17.15;4.07;;;11.20;99.90;;;;;;5075048;28;20047;-27
2022/10/02 02:50:43;;;;;;;12.05;3.92;;;11.20;99.90;;;;;;5054082;28;20048;-27
2022/10/02 02:53:12;;;;;;;14.73;4.88;;;11.20;99.90;;;;;;5075269;28;20123;-27
2022/10/02 02:55:59;;;;;;;10.60;4.10;;;11.20;99.90;;;;;;5075181;28;20128;-27
2022/10/02 02:58:45;;;;;;;11.38;3.78;;;11.10;99.90;;;;;;5058154;28;20044;-27
2022/10/02 03:01:11;;;;;;;12.32;4.57;;;11.10;99.90;;;;;;5075058;28;20039;-27
2022/10/02 03:03:37;;;;;;;10.73;3.90;;;11.10;99.90;;;;;;5074038;28;20036;-27
2022/10/02 03:06:26;;;;;;;8.30;3.80;;;11.10;99.90;;;;;;5074980;28;20120;-27
2022/10/02 03:08:52;;;;;;;15.05;4.25;;;11.10;99.90;;;;;;5074914;28;20097;-27
2022/10/02 03:11:25;;;;;;;15.18;4.45;;;11.00;99.90;;;;;;5057860;28;20077;-27
2022/10/02 03:14:01;;;;;;;10.02;4.35;;;11.00;99.90;;;;;;5074837;28;20223;-27
2022/10/02 03:17:05;;;;;;;10.50;3.67;;;11.10;99.90;;;;;;5074847;28;20040;-27
2022/10/02 03:19:55;;;;;;;12.35;3.80;;;11.00;99.90;;;;;;4993254;28;20051;-27
2022/10/02 03:22:53;;;;;;;10.80;3.67;;;11.00;99.90;;;;;;5074199;28;20044;-27
2022/10/02 03:25:32;;;;;;;11.30;4.05;;;11.00;99.90;;;;;;5074716;28;20043;-27
2022/10/02 03:28:13;;;;;;;10.13;4.15;;;11.00;99.90;;;;;;5074485;28;20032;-27
2022/10/02 03:30:40;;;;;;;11.43;3.60;;;11.00;99.90;;;;;;5074539;28;20109;-27
2022/10/02 03:33:08;;;;;;;9.95;3.33;;;10.90;99.90;;;;;;5074482;28;20397;-27
2022/10/02 03:35:34;;;;;;;12.13;3.92;;;10.90;99.90;;;;;;5074388;28;20436;-27
2022/10/02 03:38:05;;;;;;;13.13;3.33;;;10.80;99.90;;;;;;5074499;28;20503;-27
2022/10/02 03:40:31;;;;;;;9.73;3.35;;;10.80;99.90;;;;;;5074176;28;20050;-27
2022/10/02 03:42:57;;;;;;;7.63;2.92;;;10.80;99.90;;;;;;5074155;28;20127;-27
2022/10/02 03:45:27;;;;;;;7.90;3.28;;;10.80;99.90;;;;;;5074430;28;20067;-27
2022/10/02 03:47:53;;;;;;;8.18;3.28;;;10.80;99.90;;;;;;5074432;28;20093;-27
2022/10/02 03:50:20;;;;;;;7.93;2.95;;;10.80;99.90;;;;;;5092696;28;20443;-27
2022/10/02 03:52:50;;;;;;;9.20;3.17;;;10.80;99.90;;;;;;5057639;28;20043;-27
2022/10/02 03:55:36;;;;;;;10.02;2.92;;;10.80;99.90;;;;;;5074170;28;20040;-27
2022/10/02 03:58:14;;;;;;;12.20;3.60;;;10.70;99.90;;;;;;5074301;28;20036;-27
2022/10/02 04:01:04;;;;;;;9.15;3.13;;;10.80;99.90;;;;;;5074101;28;20036;-27
2022/10/02 04:03:36;;;;;;;8.85;2.80;;;10.80;99.90;;;;;;5073975;28;20402;-27
2022/10/02 04:06:12;;;;;;;9.10;3.42;;;10.70;99.90;;;;;;5073981;28;20039;-27
2022/10/02 04:09:01;;;;;;;8.95;3.10;;;10.80;99.90;;;;;;5074298;28;20485;-27
2022/10/02 04:11:35;;;;;;;7.10;2.78;;;10.80;99.90;;;;;;5074177;28;20051;-27
2022/10/02 04:14:14;;;;;;;8.13;3.58;;;10.80;99.90;;;;;;5074258;28;20118;-27
2022/10/02 04:16:51;;;;;;;10.23;2.90;;;10.70;99.90;;;;;;5077786;28;20367;-27
2022/10/02 04:19:44;;;;;;;10.55;2.97;;;10.70;99.90;;;;;;5077845;28;20353;-27
2022/10/02 04:22:42;;;;;;;10.43;3.38;;;10.70;99.90;;;;;;5077918;28;20044;-27
2022/10/02 04:25:20;;;;;;;7.70;3.15;;;10.70;99.90;;;;;;5056979;28;20044;-27
2022/10/02 04:27:58;;;;;;;10.63;3.22;;;10.70;99.90;;;;;;5078098;28;20115;-27
2022/10/02 04:30:24;;;;;;;8.07;3.83;;;10.70;99.90;;;;;;5077986;28;20504;-27
2022/10/02 04:32:50;;;;;;;9.70;3.55;;;10.70;99.90;;;;;;5077826;28;20122;-27
2022/10/02 04:35:32;;;;;;;11.70;3.58;;;10.70;99.90;;;;;;5077599;28;20573;-27
2022/10/02 04:38:08;;;;;;;13.55;3.92;;;10.70;99.90;;;;;;5077538;28;20040;-27
2022/10/02 04:40:49;;;;;;;11.90;3.97;;;10.70;99.90;;;;;;5077386;28;20123;-27
2022/10/02 04:43:33;;;;;;;9.98;4.57;;;10.80;99.90;;;;;;5077493;28;20036;-27
2022/10/02 04:45:59;;;;;;;11.30;3.60;;;10.80;99.90;;;;;;5077285;28;20044;-27
2022/10/02 04:48:36;;;;;;;12.20;3.92;;;10.80;99.90;;;;;;5077521;28;20241;-27
2022/10/02 04:51:23;;;;;;;15.32;4.13;;;10.80;99.90;;;;;;5060626;28;20048;-27
2022/10/02 04:53:55;;;;;;;15.63;4.15;;;10.80;99.90;;;;;;5077529;28;20098;-27
2022/10/02 04:56:24;;;;;;;9.82;4.22;;;10.70;99.90;;;;;;5077365;28;20044;-27
2022/10/02 04:59:36;;;;;;;14.38;4.82;;;10.70;99.90;;;;;;5077127;28;20047;-27
2022/10/02 05:02:39;;;;;;;10.43;4.03;;;10.70;99.90;;;;;;5060956;28;20455;-27
2022/10/02 05:05:20;;;;;;;16.17;4.43;;;10.70;99.90;;;;;;5060222;28;20051;-28
2022/10/02 05:08:08;;;;;;;15.10;5.22;;;10.70;99.90;;;;;;5060302;28;20086;-27
2022/10/02 05:10:52;;;;;;;8.23;3.92;;;10.60;99.90;;;;;;5076922;28;20173;-27
2022/10/02 05:13:37;;;;;;;10.55;4.75;;;10.60;99.90;;;;;;5076899;28;20040;-27
2022/10/02 05:16:05;;;;;;;12.98;4.45;;;10.60;99.90;;;;;;5077049;28;20043;-27
2022/10/02 05:18:40;;;;;;;13.65;5.28;;;10.60;99.90;;;;;;5077149;28;20035;-26
2022/10/02 05:21:38;;;;;;;16.05;4.90;;;10.60;99.90;;;;;;5076600;28;20123;-26
2022/10/02 05:24:16;;;;;;;16.08;4.43;;;10.60;99.90;;;;;;5076786;28;20117;-26
2022/10/02 05:27:09;;;;;;;13.23;4.18;;;10.60;99.90;;;;;;5075819;28;20501;-28
2022/10/02 05:29:52;;;;;;;15.88;4.90;;;10.60;99.90;;;;;;5076865;28;20549;-27
2022/10/02 05:32:17;;;;;;;13.30;4.80;;;10.60;99.90;;;;;;5095132;28;20040;-27
2022/10/02 05:34:49;;;;;;;20.15;5.30;;;10.60;99.90;;;;;;5076458;28;20486;-27
2022/10/02 05:37:35;;;;;;;18.42;4.85;;;10.60;99.90;;;;;;5076775;28;20035;-28
2022/10/02 05:40:25;;;;;;;18.85;5.28;;;10.60;99.90;;;;;;5075760;28;20052;-27
2022/10/02 05:43:09;;;;;;;14.55;4.85;;;10.60;99.90;;;;;;5076303;28;20070;-27
2022/10/02 05:45:45;;;;;;;10.23;4.35;;;10.60;99.90;;;;;;5094314;28;20036;-28
2022/10/02 05:48:22;;;;;;;12.18;4.25;;;10.60;99.90;;;;;;5076457;28;20053;-27
2022/10/02 05:50:57;;;;;;;15.15;4.38;;;10.60;99.90;;;;;;5076484;28;20505;-27
2022/10/02 05:53:36;;;;;;;16.73;5.32;;;10.60;99.90;;;;;;5075793;28;20071;-28
2022/10/02 05:56:15;;;;;;;17.08;5.05;;;10.60;99.90;;;;;;5076685;28;20050;-28
2022/10/02 05:59:01;;;;;;;10.05;4.38;;;10.60;99.90;;;;;;5076494;28;20076;-28
2022/10/02 06:01:38;;;;;;;14.10;4.40;;;10.60;99.90;;;;;;5059272;28;20059;-27
2022/10/02 06:04:16;;;;;;;10.48;4.80;;;10.60;99.90;;;;;;5076592;28;20036;-28
2022/10/02 06:06:52;;;;;;;15.65;4.47;;;10.60;99.90;;;;;;5076223;28;20028;-28
2022/10/02 06:09:26;;;;;;;17.95;5.88;;;10.60;99.90;;;;;;5076289;28;20036;-28
2022/10/02 06:11:56;;;;;;;;;;;10.60;99.90;;;;;;5076574;28;20096;-28
2022/10/02 06:14:31;;;;;;;17.55;4.65;;;10.60;99.90;;;;;;5058991;28;19916;-27
2022/10/02 06:17:28;;;;;;;12.23;4.70;;;10.60;99.90;;;;;;5076140;28;20039;-27
2022/10/02 06:20:42;;;;;;;20.33;5.47;;;10.60;99.90;;;;;;5075791;28;20032;-27
2022/10/02 06:23:23;;;;;;;17.10;5.25;;;10.60;99.90;;;;;;5071995;28;20561;-27
2022/10/02 06:26:03;;;;;;;13.95;5.50;;;10.60;99.90;;;;;;5075517;28;20497;-27
2022/10/02 06:28:55;;;;;;;15.18;4.57;;;10.70;99.90;;;;;;5075400;28;20094;-27
2022/10/02 06:31:37;;;;;;;12.93;4.25;;;10.70;99.90;;;;;;5075415;28;20032;-27
2022/10/02 06:34:03;;;;;;;10.85;5.10;;;10.70;99.90;;;;;;5075346;28;20393;-27
2022/10/02 06:36:44;;;;;;;15.55;4.43;;;10.70;99.90;;;;;;5075358;28;20435;-28
2022/10/02 06:39:18;;;;;;;10.27;4.25;;;10.80;99.90;;;;;;5074748;28;20044;-28
2022/10/02 06:42:03;;;;;;;20.40;5.25;;;10.90;99.90;;;;;;5074675;28;20409;-28
2022/10/02 06:44:53;;;;;;;17.17;5.50;;;11.00;99.90;;;;;;5074571;28;20074;-28
2022/10/02 06:47:33;;;;;;;17.55;5.05;;;11.00;99.90;;;;;;5027425;28;20089;-28
2022/10/02 06:50:27;;;;;;;14.45;5.45;;;11.10;99.90;;;;;;5075180;28;20035;-28
2022/10/02 06:53:11;;;;;;;12.45;4.97;;;11.20;99.90;;;;;;5075074;28;20469;-27
2022/10/02 06:55:39;;;;;;;16.30;5.40;;;11.20;99.90;;;;;;5074861;28;20032;-27
2022/10/02 06:58:17;;;;;;;17.65;5.65;;;11.30;99.90;;;;;;5074818;28;20134;-27
2022/10/02 07:00:52;;;;;;;18.10;5.68;;;11.30;99.90;;;;;;5058175;28;20040;-27
2022/10/02 07:03:26;;;;;;;15.77;5.22;;;11.40;99.90;;;;;;5057919;28;20044;-27
2022/10/02 07:06:11;;;;;;;14.68;5.40;;;11.40;99.90;;;;;;5075204;28;20036;-27
2022/10/02 07:08:45;;;;;;;14.90;4.75;;;11.50;99.90;;;;;;5074623;28;20071;-27
2022/10/02 07:11:31;;;;;;;14.07;4.57;;;11.50;99.90;;;;;;5092980;28;20362;-28
2022/10/02 07:14:06;;;;;;;13.60;4.95;;;11.60;99.90;;;;;;5074764;28;20549;-27
2022/10/02 07:16:54;;;;;;;14.68;5.22;;;11.70;99.90;;;;;;5074793;28;20071;-27
2022/10/02 07:19:29;;;;;;;19.38;5.20;;;11.80;99.90;;;;;;5073926;28;20046;-27
2022/10/02 07:22:09;;;;;;;18.65;5.00;;;11.80;99.90;;;;;;5073701;28;20044;-27
2022/10/02 07:24:57;;;;;;;11.60;4.13;;;11.90;99.90;;;;;;5072930;28;20047;-27
2022/10/02 07:27:22;;;;;;;12.32;4.68;;;12.00;99.90;;;;;;5070638;28;20032;-27
2022/10/02 07:29:51;;;;;;;16.70;4.93;;;12.20;99.90;;;;;;5055481;28;20040;-28
2022/10/02 07:32:29;;;;;;;15.05;4.68;;;12.30;99.90;;;;;;5072267;28;20345;-26
2022/10/02 07:35:33;;;;;;;13.80;4.18;;;12.40;99.90;;;;;;5072476;28;20090;-28
2022/10/02 07:38:43;;;;;;;15.52;4.35;;;12.50;99.90;;;;;;5073134;28;20043;-28
2022/10/02 07:41:32;;;;;;;11.68;3.80;;;12.70;99.90;;;;;;5074257;28;20044;-28
2022/10/02 07:44:22;;;;;;;9.27;3.53;;;13.00;99.90;;;;;;5091934;28;20043;-28
2022/10/02 07:47:18;;;;;;;9.93;3.72;;;13.40;99.90;;;;;;5074359;28;20397;-27
2022/10/02 07:49:54;;;;;;;12.02;4.15;;;13.80;99.90;;;;;;5073616;28;20042;-27
2022/10/02 07:52:22;;;;;;;15.65;3.97;;;14.10;99.90;;;;;;5074129;28;20384;-28
2022/10/02 07:55:18;;;;;;;7.97;3.13;;;14.40;99.90;;;;;;5073710;28;20463;-28
2022/10/02 07:57:51;;;;;;;10.13;3.38;;;14.70;99.90;;;;;;5074113;28;20070;-28
2022/10/02 08:00:21;;;;;;;11.00;4.05;;;14.90;99.90;;;;;;5074204;28;20036;-28
2022/10/02 08:03:00;;;;;;;17.00;3.92;;;14.80;99.90;;;;;;5074242;28;20047;-28
2022/10/02 08:05:38;;;;;;;9.82;3.08;;;14.70;99.90;;;;;;5074068;28;20040;-28
2022/10/02 08:08:18;;;;;;;11.00;3.30;;;14.70;99.90;;;;;;5074161;28;20035;-28
2022/10/02 08:10:51;;;;;;;9.10;2.95;;;14.60;99.90;;;;;;5074171;28;20394;-27
2022/10/02 08:13:22;;;;;;;11.95;3.05;;;14.70;99.90;;;;;;5073834;28;20040;-28
2022/10/02 08:15:54;;;;;;;11.10;3.00;;;15.10;99.90;;;;;;5073919;28;20040;-28
2022/10/02 08:18:35;;;;;;;9.65;3.25;;;15.70;99.90;;;;;;5073840;28;20036;-28
2022/10/02 08:21:08;;;;;;;12.57;3.17;;;16.00;99.90;;;;;;5073879;28;20093;-28
2022/10/02 08:23:49;;;;;;;;;;;16.20;99.90;;;;;;5057495;28;20073;-28
2022/10/02 08:26:27;;;;;;;9.00;2.58;;;16.50;99.90;;;;;;5074014;28;20254;-28
2022/10/02 08:29:00;;;;;;;7.88;2.95;;;16.90;99.90;;;;;;5073625;28;20122;-28
2022/10/02 08:31:26;;;;;;;12.48;3.17;;;17.30;99.90;;;;;;5074081;28;20097;-29
2022/10/02 08:33:52;;;;;;;11.98;2.85;;;17.70;99.90;;;;;;5073955;28;20074;-29
2022/10/02 08:36:44;;;;;;;7.18;2.50;;;18.10;99.90;;;;;;5074074;28;20115;-28
2022/10/02 08:39:24;;;;;;;10.98;2.97;;;18.50;99.90;;;;;;5073849;28;20043;-28
2022/10/02 08:42:00;;;;;;;9.57;3.20;;;18.70;99.90;;;;;;5073414;28;20040;-29
2022/10/02 08:45:05;;;;;;;10.60;2.42;;;18.70;99.90;;;;;;5073564;28;20090;-29
2022/10/02 08:47:53;;;;;;;8.43;2.15;;;18.70;99.90;;;;;;5069771;28;20059;-29
2022/10/02 08:50:41;;;;;;;9.88;2.47;;;18.70;99.90;;;;;;5073283;28;20047;-29
2022/10/02 08:53:29;;;;;;;8.30;2.13;;;18.80;99.90;;;;;;5056694;28;20086;-29
2022/10/02 08:56:17;;;;;;;7.78;2.20;;;19.00;99.90;;;;;;5073596;28;20390;-29
2022/10/02 08:58:49;;;;;;;8.18;2.03;;;19.10;99.90;;;;;;5073782;28;20040;-29
2022/10/02 09:01:35;;;;;;;7.57;2.58;;;19.10;99.90;;;;;;5074508;28;20046;-29
2022/10/02 09:04:30;;;;;;;9.55;2.38;;;19.20;99.90;;;;;;5077052;28;20040;-29
2022/10/02 09:07:14;;;;;;;7.30;2.22;;;19.20;99.90;;;;;;5076235;28;20062;-29
2022/10/02 09:09:46;;;;;;;9.52;2.00;;;19.40;99.90;;;;;;5075069;28;20040;-29
2022/10/02 09:12:30;;;;;;;8.63;2.10;;;19.60;99.90;;;;;;5075857;28;20477;-29
2022/10/02 09:15:21;;;;;;;10.98;2.72;;;19.80;99.90;;;;;;5075622;28;20040;-29
2022/10/02 09:18:02;;;;;;;9.07;2.40;;;19.90;99.90;;;;;;5074033;28;20044;-29
2022/10/02 09:21:00;;;;;;;12.77;2.97;;;20.10;99.90;;;;;;5075187;28;20393;-29
2022/10/02 09:24:04;;;;;;;9.70;2.10;;;20.00;99.90;;;;;;5077108;28;20508;-29
2022/10/02 09:26:44;;;;;;;9.67;2.33;;;19.40;99.90;;;;;;5076825;28;20146;-29
2022/10/02 09:29:35;;;;;;;9.13;2.42;;;19.20;99.90;;;;;;5076569;28;20281;-29
2022/10/02 09:32:23;;;;;;;10.88;2.22;;;18.80;99.90;;;;;;5076578;28;20044;-28
2022/10/02 09:35:07;;;;;;;9.05;2.28;;;18.60;99.90;;;;;;5076740;28;20093;-28
2022/10/02 09:37:49;;;;;;;11.95;2.03;;;18.60;99.90;;;;;;5076436;28;20085;-29
2022/10/02 09:40:57;;;;;;;7.63;2.38;;;18.90;99.90;;;;;;5076295;28;20131;-29
2022/10/02 09:43:43;;;;;;;5.80;1.90;;;19.20;99.90;;;;;;4976231;28;20074;-29
2022/10/02 09:46:48;;;;;;;8.88;2.10;;;19.50;99.90;;;;;;5070385;28;20051;-29
2022/10/02 09:49:41;;;;;;;8.43;1.83;;;19.50;99.90;;;;;;5075541;28;20067;-29
2022/10/02 09:52:19;;;;;;;7.40;2.28;;;19.20;99.90;;;;;;5075213;28;20097;-29
2022/10/02 09:55:20;;;;;;;8.60;2.38;;;18.90;99.90;;;;;;5059311;28;20051;-28
2022/10/02 09:58:10;;;;;;;5.93;2.10;;;19.00;99.90;;;;;;5076438;28;20119;-29
2022/10/02 10:01:08;;;;;;;8.40;2.30;;;19.40;99.90;;;;;;5076133;28;20040;-29
2022/10/02 10:03:58;;;;;;;9.20;1.70;;;20.10;99.90;;;;;;5075987;28;20100;-27
2022/10/02 10:06:58;;;;;;;9.65;2.38;;;20.10;99.90;;;;;;5076212;28;20089;-27
2022/10/02 10:09:34;;;;;;;10.93;2.80;;;19.90;99.90;;;;;;5075778;28;20032;-28
2022/10/02 10:12:24;;;;;;;9.30;2.50;;;20.00;99.90;;;;;;5058972;28;20050;-28
2022/10/02 10:15:18;;;;;;;11.05;2.47;;;20.30;99.90;;;;;;5075896;28;20047;-28
2022/10/02 10:18:02;;;;;;;8.50;2.10;;;20.70;99.90;;;;;;5075891;28;20485;-29
2022/10/02 10:21:07;;;;;;;8.60;2.50;;;20.60;99.90;;;;;;5075768;28;20075;-29
2022/10/02 10:24:03;;;;;;;12.68;2.88;;;21.10;99.90;;;;;;5075341;28;20040;-29
2022/10/02 10:26:35;;;;;;;8.25;2.40;;;21.00;99.90;;;;;;5075523;28;20040;-28
2022/10/02 10:29:58;;;;;;;6.20;2.10;;;20.40;99.90;;;;;;5075402;28;20086;-28
2022/10/02 10:32:25;;;;;;;7.95;2.17;;;20.30;99.90;;;;;;4975670;28;20042;-28
2022/10/02 10:35:21;;;;;;;8.77;2.42;;;20.70;99.90;;;;;;4975492;28;20085;-28
2022/10/02 10:41:29;;;;;;;7.68;2.20;;;21.60;99.90;;;;;;5093534;28;20048;-28
2022/10/02 10:44:34;;;;;;;9.40;2.15;;;21.00;99.90;;;;;;5075202;28;20155;-28
2022/10/02 10:47:20;;;;;;;7.13;2.35;;;20.20;99.90;;;;;;5057581;28;20523;-27
2022/10/02 10:50:04;;;;;;;6.85;2.17;;;19.80;99.90;;;;;;5075083;28;20036;-28
2022/10/02 10:52:38;;;;;;;5.22;1.80;;;19.80;99.90;;;;;;5058452;28;20067;-28
2022/10/02 10:55:18;;;;;;;7.03;1.90;;;20.30;99.90;;;;;;5075209;28;20393;-28
2022/10/02 10:57:56;;;;;;;8.32;2.13;;;20.60;97.90;;;;;;5075010;28;20519;-28
2022/10/02 11:00:32;;;;;;;7.65;2.05;;;21.00;94.40;;;;;;5075308;28;20036;-28
2022/10/02 11:03:26;;;;;;;6.45;1.63;;;21.70;99.90;;;;;;5075201;28;20481;-28
2022/10/02 11:06:10;;;;;;;4.55;1.70;;;22.10;80.40;;;;;;5074754;28;20040;-28
2022/10/02 11:09:03;;;;;;;;;;;22.50;80.10;;;;;;5075143;28;20238;-28
2022/10/02 11:11:59;;;;;;;8.23;1.60;;;22.20;79.30;;;;;;5070641;28;19922;-28
2022/10/02 11:14:33;;;;;;;5.10;1.60;;;22.20;74.30;;;;;;5075193;28;20046;-28
2022/10/02 11:17:23;;;;;;;5.93;1.85;;;22.10;91.70;;;;;;5075189;28;20044;-28
2022/10/02 11:20:29;;;;;;;4.97;1.77;;;21.80;77.30;;;;;;5075170;28;20075;-28
2022/10/02 11:23:09;;;;;;;6.90;2.08;;;21.50;75.10;;;;;;5074879;28;20048;-28
2022/10/02 11:25:58;;;;;;;6.65;2.15;;;21.30;94.90;;;;;;5074081;28;20047;-28
2022/10/02 11:28:43;;;;;;;7.30;2.17;;;21.20;92.10;;;;;;5074992;28;20070;-28
2022/10/02 11:31:33;;;;;;;6.22;1.90;;;21.00;88.00;;;;;;5074821;28;20067;-28
2022/10/02 11:34:26;;;;;;;8.60;2.25;;;21.20;84.50;;;;;;5074567;28;20052;-28
2022/10/02 11:37:16;;;;;;;6.50;2.10;;;21.20;89.90;;;;;;5074813;28;20036;-28
2022/10/02 11:40:14;;;;;;;7.88;2.30;;;21.00;93.40;;;;;;5074488;28;20044;-28
2022/10/02 11:42:47;;;;;;;7.70;1.77;;;21.30;84.40;;;;;;5073547;28;20052;-28
2022/10/02 11:45:47;;;;;;;5.43;1.77;;;21.20;90.90;;;;;;5074702;28;20044;-28
2022/10/02 11:48:39;;;;;;;5.32;1.75;;;20.70;82.60;;;;;;5057777;28;20044;-28
2022/10/02 11:51:29;;;;;;;7.30;1.80;;;20.20;94.40;;;;;;5074639;28;20048;-28
2022/10/02 11:54:08;;;;;;;5.78;1.50;;;19.50;98.80;;;;;;5074309;28;20036;-28
2022/10/02 11:57:00;;;;;;;7.05;1.70;;;19.10;99.90;;;;;;5074683;28;20470;-28
2022/10/02 11:59:45;;;;;;;4.80;2.10;;;18.90;99.90;;;;;;5074360;28;20036;-28
2022/10/02 12:02:22;;;;;;;8.05;1.98;;;18.60;99.90;;;;;;5057190;28;20078;-28
2022/10/02 12:05:04;;;;;;;11.77;2.40;;;18.40;99.90;;;;;;5074441;28;20036;-28
2022/10/02 12:07:49;;;;;;;9.05;1.88;;;18.20;99.90;;;;;;5057389;28;20032;-28
2022/10/02 12:10:38;;;;;;;11.38;2.72;;;18.60;99.90;;;;;;5074183;28;20036;-28
2022/10/02 12:13:23;;;;;;;10.13;2.40;;;19.40;99.90;;;;;;5074091;28;20044;-28
2022/10/02 12:16:13;;;;;;;7.00;2.15;;;20.50;99.90;;;;;;5073930;28;20047;-28
2022/10/02 12:19:20;;;;;;;8.23;2.40;;;21.40;99.90;;;;;;5074976;28;20040;-28
2022/10/02 12:28:30;;;;;;;9.30;2.25;;;23.40;75.30;;;;;;5092313;28;20117;-29
2022/10/02 12:31:06;;;;;;;6.63;2.47;;;24.30;81.60;;;;;;5074128;28;20036;-28
2022/10/02 12:33:53;;;;;;;11.93;2.03;;;25.30;61.40;;;;;;5074195;28;20047;-28
2022/10/02 12:36:25;;;;;;;7.45;2.00;;;25.70;57.40;;;;;;5075386;28;20122;-28
2022/10/02 12:39:19;;;;;;;7.03;2.30;;;25.70;61.50;;;;;;5077787;28;20069;-29
2022/10/02 12:42:20;;;;;;;7.03;2.15;;;25.70;57.20;;;;;;5077816;28;20036;-29
2022/10/02 12:44:57;;;;;;;6.65;2.10;;;25.90;58.30;;;;;;5077647;28;20082;-29
2022/10/02 12:47:44;;;;;;;7.35;2.40;;;26.50;59.20;;;;;;5077426;28;20043;-29
2022/10/02 12:51:04;;;;;;;9.18;2.25;;;27.40;52.30;;;;;;5077602;28;20443;-29
2022/10/02 12:53:43;;;;;;;4.72;1.92;;;28.10;50.80;;;;;;5024770;28;20070;-29
2022/10/02 12:56:47;;;;;;;5.47;1.73;;;28.30;49.50;;;;;;5077471;28;20141;-29
2022/10/02 12:59:24;;;;;;;6.30;2.53;;;28.20;46.30;;;;;;5077610;28;20405;-29
2022/10/02 13:02:12;;;;;;;9.05;2.28;;;27.90;48.30;;;;;;5077295;28;20036;-29
2022/10/02 13:04:58;;;;;;;8.68;2.10;;;27.50;48.30;;;;;;5077143;28;20043;-29
2022/10/02 13:07:29;;;;;;;7.32;2.13;;;26.80;48.90;;;;;;5076451;28;20055;-28
2022/10/02 13:10:21;;;;;;;4.68;1.65;;;26.30;48.50;;;;;;5077197;28;20481;-29
2022/10/02 13:13:05;;;;;;;6.97;1.95;;;25.60;48.70;;;;;;5077156;28;20058;-28
2022/10/02 13:15:43;;;;;;;5.78;2.20;;;25.50;48.80;;;;;;5077033;28;20047;-28
2022/10/02 13:18:15;;;;;;;6.97;2.22;;;25.70;49.60;;;;;;5077361;28;20124;-29
2022/10/02 13:21:03;;;;;;;5.70;1.75;;;25.70;51.30;;;;;;5077500;28;20560;-29
2022/10/02 13:23:46;;;;;;;8.73;2.13;;;26.20;49.60;;;;;;5077503;28;20386;-29
2022/10/02 13:26:32;;;;;;;6.93;2.22;;;25.70;49.30;;;;;;5077223;28;20040;-29
2022/10/02 13:28:58;;;;;;;5.28;1.77;;;26.20;49.70;;;;;;5077009;28;20048;-29
2022/10/02 13:31:53;;;;;;;8.05;2.20;;;25.80;49.30;;;;;;5077206;28;20511;-29
2022/10/02 13:34:25;;;;;;;6.32;1.90;;;26.20;49.80;;;;;;5076842;28;20044;-29
2022/10/02 13:37:06;;;;;;;5.47;1.90;;;26.20;49.30;;;;;;5076735;28;20087;-29
2022/10/02 13:39:50;;;;;;;7.57;2.25;;;26.20;48.80;;;;;;5077244;28;20040;-29
2022/10/02 13:42:35;;;;;;;7.80;1.80;;;26.30;49.60;;;;;;5076494;28;20527;-29
2022/10/02 13:45:28;;;;;;;5.60;1.90;;;26.20;49.10;;;;;;5076694;28;20036;-29
2022/10/02 13:48:18;;;;;;;6.38;1.92;;;25.70;48.00;;;;;;5075468;28;20089;-29
2022/10/02 13:50:58;;;;;;;5.70;1.70;;;26.00;46.50;;;;;;5076290;28;20047;-28
2022/10/02 13:53:42;;;;;;;6.65;2.00;;;26.10;49.00;;;;;;5076094;28;20474;-27
2022/10/02 13:56:25;;;;;;;6.95;2.17;;;26.80;47.70;;;;;;5076107;28;20397;-27
2022/10/02 13:59:05;;;;;;;5.68;1.85;;;26.90;47.70;;;;;;5076076;28;20504;-27
2022/10/02 14:01:56;;;;;;;6.15;2.30;;;26.80;48.20;;;;;;5076313;28;20374;-27
2022/10/02 14:04:45;;;;;;;4.47;2.30;;;26.70;46.80;;;;;;5076480;28;20043;-27
2022/10/02 14:07:36;;;;;;;7.68;1.95;;;26.20;47.70;;;;;;5076366;28;20092;-29
2022/10/02 14:10:05;;;;;;;6.10;2.03;;;26.10;48.80;;;;;;5076099;28;20290;-27